sensor_id;sensor_type;location;lat;lon;timestamp;P1;durP1;ratioP1;P2;durP2;ratioP2
51529;SDS011;37613;51.788;21.582;2022-08-21T00:02:51;14.00;;;4.40;;
51529;SDS011;37613;51.788;21.582;2022-08-21T00:07:05;12.00;;;4.00;;
51529;SDS011;37613;51.788;21.582;2022-08-21T00:11:07;6.90;;;4.10;;
51529;SDS011;37613;51.788;21.582;2022-08-21T00:15:10;7.30;;;4.40;;
51529;SDS011;37613;51.788;21.582;2022-08-21T00:19:16;4.30;;;3.70;;
51529;SDS011;37613;51.788;21.582;2022-08-21T00:23:17;10.20;;;4.40;;
51529;SDS011;37613;51.788;21.582;2022-08-21T00:27:20;6.80;;;4.20;;
51529;SDS011;37613;51.788;21.582;2022-08-21T00:31:22;5.90;;;4.30;;
51529;SDS011;37613;51.788;21.582;2022-08-21T00:35:28;7.30;;;4.20;;
51529;SDS011;37613;51.788;21.582;2022-08-21T00:39:32;7.90;;;4.10;;
51529;SDS011;37613;51.788;21.582;2022-08-21T00:43:35;7.80;;;4.10;;
51529;SDS011;37613;51.788;21.582;2022-08-21T00:47:39;4.60;;;4.00;;
51529;SDS011;37613;51.788;21.582;2022-08-21T00:51:42;6.10;;;4.20;;
51529;SDS011;37613;51.788;21.582;2022-08-21T00:55:48;9.20;;;4.60;;
51529;SDS011;37613;51.788;21.582;2022-08-21T00:59:51;8.90;;;4.90;;
51529;SDS011;37613;51.788;21.582;2022-08-21T01:03:57;5.20;;;4.20;;
51529;SDS011;37613;51.788;21.582;2022-08-21T01:07:59;8.10;;;4.80;;
51529;SDS011;37613;51.788;21.582;2022-08-21T01:12:01;12.50;;;5.50;;
51529;SDS011;37613;51.788;21.582;2022-08-21T01:16:05;12.10;;;5.60;;
51529;SDS011;37613;51.788;21.582;2022-08-21T01:20:11;12.70;;;5.20;;
51529;SDS011;37613;51.788;21.582;2022-08-21T01:24:13;10.70;;;5.10;;
51529;SDS011;37613;51.788;21.582;2022-08-21T01:28:15;8.90;;;4.80;;
51529;SDS011;37613;51.788;21.582;2022-08-21T01:32:18;9.10;;;4.90;;
51529;SDS011;37613;51.788;21.582;2022-08-21T01:36:21;6.10;;;4.30;;
51529;SDS011;37613;51.788;21.582;2022-08-21T01:40:24;5.30;;;4.70;;
51529;SDS011;37613;51.788;21.582;2022-08-21T01:44:27;5.10;;;4.40;;
51529;SDS011;37613;51.788;21.582;2022-08-21T01:48:29;6.50;;;4.90;;
51529;SDS011;37613;51.788;21.582;2022-08-21T01:52:31;5.70;;;4.60;;
51529;SDS011;37613;51.788;21.582;2022-08-21T01:56:38;5.90;;;5.30;;
51529;SDS011;37613;51.788;21.582;2022-08-21T02:00:42;7.10;;;4.80;;
51529;SDS011;37613;51.788;21.582;2022-08-21T02:04:44;4.90;;;4.40;;
51529;SDS011;37613;51.788;21.582;2022-08-21T02:08:46;10.70;;;5.40;;
51529;SDS011;37613;51.788;21.582;2022-08-21T02:12:48;8.70;;;5.10;;
51529;SDS011;37613;51.788;21.582;2022-08-21T02:16:51;9.40;;;5.70;;
51529;SDS011;37613;51.788;21.582;2022-08-21T02:20:52;7.50;;;5.30;;
51529;SDS011;37613;51.788;21.582;2022-08-21T02:24:54;6.20;;;4.90;;
51529;SDS011;37613;51.788;21.582;2022-08-21T02:28:56;5.50;;;5.00;;
51529;SDS011;37613;51.788;21.582;2022-08-21T02:32:58;6.30;;;4.90;;
51529;SDS011;37613;51.788;21.582;2022-08-21T02:37:01;5.90;;;5.20;;
51529;SDS011;37613;51.788;21.582;2022-08-21T02:41:03;13.20;;;5.70;;
51529;SDS011;37613;51.788;21.582;2022-08-21T02:45:07;10.10;;;5.20;;
51529;SDS011;37613;51.788;21.582;2022-08-21T02:49:09;9.70;;;5.70;;
51529;SDS011;37613;51.788;21.582;2022-08-21T02:53:12;9.60;;;5.20;;
51529;SDS011;37613;51.788;21.582;2022-08-21T02:57:17;11.70;;;6.20;;
51529;SDS011;37613;51.788;21.582;2022-08-21T03:01:19;9.60;;;5.50;;
51529;SDS011;37613;51.788;21.582;2022-08-21T03:05:21;10.90;;;5.60;;
51529;SDS011;37613;51.788;21.582;2022-08-21T03:09:23;13.40;;;6.60;;
51529;SDS011;37613;51.788;21.582;2022-08-21T03:13:25;9.10;;;5.30;;
51529;SDS011;37613;51.788;21.582;2022-08-21T03:17:27;10.90;;;5.90;;
51529;SDS011;37613;51.788;21.582;2022-08-21T03:21:29;7.10;;;4.80;;
51529;SDS011;37613;51.788;21.582;2022-08-21T03:25:31;10.70;;;5.40;;
51529;SDS011;37613;51.788;21.582;2022-08-21T03:29:34;10.20;;;5.30;;
51529;SDS011;37613;51.788;21.582;2022-08-21T03:33:36;11.50;;;5.70;;
51529;SDS011;37613;51.788;21.582;2022-08-21T03:37:38;16.10;;;6.00;;
51529;SDS011;37613;51.788;21.582;2022-08-21T03:41:40;6.50;;;5.60;;
51529;SDS011;37613;51.788;21.582;2022-08-21T03:45:42;8.90;;;5.50;;
51529;SDS011;37613;51.788;21.582;2022-08-21T03:49:45;10.40;;;5.50;;
51529;SDS011;37613;51.788;21.582;2022-08-21T03:53:46;9.10;;;5.10;;
51529;SDS011;37613;51.788;21.582;2022-08-21T03:57:48;10.50;;;6.00;;
51529;SDS011;37613;51.788;21.582;2022-08-21T04:01:51;6.30;;;4.70;;
51529;SDS011;37613;51.788;21.582;2022-08-21T04:05:58;6.40;;;4.90;;
51529;SDS011;37613;51.788;21.582;2022-08-21T04:09:59;10.10;;;5.00;;
51529;SDS011;37613;51.788;21.582;2022-08-21T04:14:01;9.50;;;4.70;;
51529;SDS011;37613;51.788;21.582;2022-08-21T04:18:04;4.70;;;4.30;;
51529;SDS011;37613;51.788;21.582;2022-08-21T04:22:06;5.30;;;4.60;;
51529;SDS011;37613;51.788;21.582;2022-08-21T04:26:08;5.30;;;4.30;;
51529;SDS011;37613;51.788;21.582;2022-08-21T04:30:11;6.20;;;4.30;;
51529;SDS011;37613;51.788;21.582;2022-08-21T04:34:14;5.80;;;4.10;;
51529;SDS011;37613;51.788;21.582;2022-08-21T04:38:16;4.40;;;3.90;;
51529;SDS011;37613;51.788;21.582;2022-08-21T04:42:18;6.20;;;3.80;;
51529;SDS011;37613;51.788;21.582;2022-08-21T04:46:20;4.10;;;3.80;;
51529;SDS011;37613;51.788;21.582;2022-08-21T04:50:37;6.60;;;3.90;;
51529;SDS011;37613;51.788;21.582;2022-08-21T04:54:45;4.60;;;3.90;;
51529;SDS011;37613;51.788;21.582;2022-08-21T04:58:49;5.90;;;3.60;;
51529;SDS011;37613;51.788;21.582;2022-08-21T05:02:54;5.90;;;3.60;;
51529;SDS011;37613;51.788;21.582;2022-08-21T05:07:02;4.00;;;3.60;;
51529;SDS011;37613;51.788;21.582;2022-08-21T05:11:07;5.70;;;3.50;;
51529;SDS011;37613;51.788;21.582;2022-08-21T05:15:10;4.90;;;3.20;;
51529;SDS011;37613;51.788;21.582;2022-08-21T05:19:13;4.00;;;3.20;;
51529;SDS011;37613;51.788;21.582;2022-08-21T05:23:15;5.80;;;3.10;;
51529;SDS011;37613;51.788;21.582;2022-08-21T05:27:17;4.10;;;3.30;;
51529;SDS011;37613;51.788;21.582;2022-08-21T05:31:19;5.60;;;3.40;;
51529;SDS011;37613;51.788;21.582;2022-08-21T05:35:21;7.30;;;3.60;;
51529;SDS011;37613;51.788;21.582;2022-08-21T05:39:23;4.60;;;2.90;;
51529;SDS011;37613;51.788;21.582;2022-08-21T05:43:25;3.60;;;3.10;;
51529;SDS011;37613;51.788;21.582;2022-08-21T05:47:27;7.00;;;3.70;;
51529;SDS011;37613;51.788;21.582;2022-08-21T05:51:29;4.50;;;3.80;;
51529;SDS011;37613;51.788;21.582;2022-08-21T05:55:31;3.80;;;3.30;;
51529;SDS011;37613;51.788;21.582;2022-08-21T05:59:32;3.50;;;3.20;;
51529;SDS011;37613;51.788;21.582;2022-08-21T06:03:36;6.90;;;3.80;;
51529;SDS011;37613;51.788;21.582;2022-08-21T06:07:39;4.80;;;3.70;;
51529;SDS011;37613;51.788;21.582;2022-08-21T06:11:41;4.20;;;3.80;;
51529;SDS011;37613;51.788;21.582;2022-08-21T06:15:43;5.00;;;3.50;;
51529;SDS011;37613;51.788;21.582;2022-08-21T06:23:51;3.90;;;3.30;;
51529;SDS011;37613;51.788;21.582;2022-08-21T06:27:59;3.70;;;3.40;;
51529;SDS011;37613;51.788;21.582;2022-08-21T06:32:03;6.50;;;3.50;;
51529;SDS011;37613;51.788;21.582;2022-08-21T06:36:06;4.70;;;3.50;;
51529;SDS011;37613;51.788;21.582;2022-08-21T06:44:10;4.30;;;3.40;;
51529;SDS011;37613;51.788;21.582;2022-08-21T06:48:11;3.60;;;3.30;;
51529;SDS011;37613;51.788;21.582;2022-08-21T06:52:13;4.40;;;4.00;;
51529;SDS011;37613;51.788;21.582;2022-08-21T06:56:15;5.00;;;3.10;;
51529;SDS011;37613;51.788;21.582;2022-08-21T07:04:19;6.10;;;3.30;;
51529;SDS011;37613;51.788;21.582;2022-08-21T07:08:21;4.60;;;3.40;;
51529;SDS011;37613;51.788;21.582;2022-08-21T07:16:25;5.30;;;3.00;;
51529;SDS011;37613;51.788;21.582;2022-08-21T07:20:28;4.80;;;3.20;;
51529;SDS011;37613;51.788;21.582;2022-08-21T07:24:30;11.90;;;3.80;;
51529;SDS011;37613;51.788;21.582;2022-08-21T07:28:32;3.50;;;3.20;;
51529;SDS011;37613;51.788;21.582;2022-08-21T07:32:35;4.70;;;4.10;;
51529;SDS011;37613;51.788;21.582;2022-08-21T07:36:37;7.50;;;5.10;;
51529;SDS011;37613;51.788;21.582;2022-08-21T07:40:39;5.50;;;4.10;;
51529;SDS011;37613;51.788;21.582;2022-08-21T07:44:41;5.40;;;3.60;;
51529;SDS011;37613;51.788;21.582;2022-08-21T07:48:43;9.90;;;8.10;;
51529;SDS011;37613;51.788;21.582;2022-08-21T07:52:44;5.50;;;3.50;;
51529;SDS011;37613;51.788;21.582;2022-08-21T07:56:47;21.60;;;15.10;;
51529;SDS011;37613;51.788;21.582;2022-08-21T08:04:51;13.00;;;7.50;;
51529;SDS011;37613;51.788;21.582;2022-08-21T08:08:53;13.90;;;7.70;;
51529;SDS011;37613;51.788;21.582;2022-08-21T08:12:55;5.20;;;3.40;;
51529;SDS011;37613;51.788;21.582;2022-08-21T08:16:57;11.30;;;6.30;;
51529;SDS011;37613;51.788;21.582;2022-08-21T08:20:59;30.10;;;14.70;;
51529;SDS011;37613;51.788;21.582;2022-08-21T08:25:01;13.60;;;8.40;;
51529;SDS011;37613;51.788;21.582;2022-08-21T08:29:05;8.70;;;3.40;;
51529;SDS011;37613;51.788;21.582;2022-08-21T08:33:06;6.40;;;5.20;;
51529;SDS011;37613;51.788;21.582;2022-08-21T08:41:15;7.30;;;4.20;;
51529;SDS011;37613;51.788;21.582;2022-08-21T08:45:20;4.50;;;3.10;;
51529;SDS011;37613;51.788;21.582;2022-08-21T08:50:03;2.80;;;2.60;;
51529;SDS011;37613;51.788;21.582;2022-08-21T08:54:12;2.40;;;2.20;;
51529;SDS011;37613;51.788;21.582;2022-08-21T08:58:23;4.90;;;2.90;;
51529;SDS011;37613;51.788;21.582;2022-08-21T09:02:28;4.10;;;2.70;;
51529;SDS011;37613;51.788;21.582;2022-08-21T09:11:12;4.60;;;2.30;;
51529;SDS011;37613;51.788;21.582;2022-08-21T09:23:25;1.90;;;1.70;;
51529;SDS011;37613;51.788;21.582;2022-08-21T09:27:58;4.20;;;1.90;;
51529;SDS011;37613;51.788;21.582;2022-08-21T09:36:01;2.30;;;2.10;;
51529;SDS011;37613;51.788;21.582;2022-08-21T09:40:15;4.00;;;1.60;;
51529;SDS011;37613;51.788;21.582;2022-08-21T09:44:36;3.50;;;2.10;;
51529;SDS011;37613;51.788;21.582;2022-08-21T09:48:46;3.60;;;1.90;;
51529;SDS011;37613;51.788;21.582;2022-08-21T09:52:51;6.50;;;2.30;;
51529;SDS011;37613;51.788;21.582;2022-08-21T10:01:20;2.80;;;2.40;;
51529;SDS011;37613;51.788;21.582;2022-08-21T10:05:25;6.40;;;2.60;;
51529;SDS011;37613;51.788;21.582;2022-08-21T10:09:28;2.30;;;2.10;;
51529;SDS011;37613;51.788;21.582;2022-08-21T10:22:20;2.50;;;2.30;;
51529;SDS011;37613;51.788;21.582;2022-08-21T10:31:52;2.60;;;2.10;;
51529;SDS011;37613;51.788;21.582;2022-08-21T10:35:40;2.30;;;2.20;;
51529;SDS011;37613;51.788;21.582;2022-08-21T10:56:34;1.70;;;1.60;;
51529;SDS011;37613;51.788;21.582;2022-08-21T11:04:53;2.30;;;1.60;;
51529;SDS011;37613;51.788;21.582;2022-08-21T11:09:15;2.00;;;1.90;;
51529;SDS011;37613;51.788;21.582;2022-08-21T11:13:29;3.20;;;1.30;;
51529;SDS011;37613;51.788;21.582;2022-08-21T11:17:47;1.90;;;1.80;;
51529;SDS011;37613;51.788;21.582;2022-08-21T11:22:02;1.90;;;1.80;;
51529;SDS011;37613;51.788;21.582;2022-08-21T11:26:23;1.30;;;1.30;;
51529;SDS011;37613;51.788;21.582;2022-08-21T11:30:33;3.00;;;1.90;;
51529;SDS011;37613;51.788;21.582;2022-08-21T11:39:19;2.10;;;1.90;;
51529;SDS011;37613;51.788;21.582;2022-08-21T11:56:45;2.60;;;1.90;;
51529;SDS011;37613;51.788;21.582;2022-08-21T12:01:00;2.60;;;2.00;;
51529;SDS011;37613;51.788;21.582;2022-08-21T12:05:38;2.20;;;2.00;;
51529;SDS011;37613;51.788;21.582;2022-08-21T12:09:53;2.40;;;1.90;;
51529;SDS011;37613;51.788;21.582;2022-08-21T12:22:38;1.70;;;1.60;;
51529;SDS011;37613;51.788;21.582;2022-08-21T12:26:50;2.90;;;1.90;;
51529;SDS011;37613;51.788;21.582;2022-08-21T12:30:54;2.30;;;2.00;;
51529;SDS011;37613;51.788;21.582;2022-08-21T12:38:59;2.40;;;2.00;;
51529;SDS011;37613;51.788;21.582;2022-08-21T12:43:11;2.80;;;2.20;;
51529;SDS011;37613;51.788;21.582;2022-08-21T12:52:59;3.30;;;2.00;;
51529;SDS011;37613;51.788;21.582;2022-08-21T12:57:07;4.90;;;4.50;;
51529;SDS011;37613;51.788;21.582;2022-08-21T13:01:19;4.50;;;2.60;;
51529;SDS011;37613;51.788;21.582;2022-08-21T13:05:33;5.40;;;2.40;;
51529;SDS011;37613;51.788;21.582;2022-08-21T13:09:42;2.20;;;2.00;;
51529;SDS011;37613;51.788;21.582;2022-08-21T13:13:52;2.40;;;2.00;;
51529;SDS011;37613;51.788;21.582;2022-08-21T13:17:55;3.00;;;2.10;;
51529;SDS011;37613;51.788;21.582;2022-08-21T13:22:03;3.10;;;2.30;;
51529;SDS011;37613;51.788;21.582;2022-08-21T13:26:12;2.30;;;2.10;;
51529;SDS011;37613;51.788;21.582;2022-08-21T13:30:20;2.90;;;2.60;;
51529;SDS011;37613;51.788;21.582;2022-08-21T13:34:24;12.50;;;11.40;;
51529;SDS011;37613;51.788;21.582;2022-08-21T13:38:31;3.10;;;2.60;;
51529;SDS011;37613;51.788;21.582;2022-08-21T13:42:38;6.60;;;4.80;;
51529;SDS011;37613;51.788;21.582;2022-08-21T13:46:42;4.50;;;2.90;;
51529;SDS011;37613;51.788;21.582;2022-08-21T13:56:02;2.60;;;2.40;;
51529;SDS011;37613;51.788;21.582;2022-08-21T14:00:09;4.70;;;4.00;;
51529;SDS011;37613;51.788;21.582;2022-08-21T14:04:18;8.00;;;4.90;;
51529;SDS011;37613;51.788;21.582;2022-08-21T14:08:30;4.30;;;2.80;;
51529;SDS011;37613;51.788;21.582;2022-08-21T14:12:47;10.30;;;4.60;;
51529;SDS011;37613;51.788;21.582;2022-08-21T14:17:03;7.90;;;3.30;;
51529;SDS011;37613;51.788;21.582;2022-08-21T14:21:08;3.10;;;2.60;;
51529;SDS011;37613;51.788;21.582;2022-08-21T14:29:15;3.40;;;3.10;;
51529;SDS011;37613;51.788;21.582;2022-08-21T14:33:29;5.50;;;3.50;;
51529;SDS011;37613;51.788;21.582;2022-08-21T14:37:34;3.30;;;3.00;;
51529;SDS011;37613;51.788;21.582;2022-08-21T14:41:36;5.10;;;3.20;;
51529;SDS011;37613;51.788;21.582;2022-08-21T14:45:38;3.90;;;3.20;;
51529;SDS011;37613;51.788;21.582;2022-08-21T14:49:42;2.70;;;2.50;;
51529;SDS011;37613;51.788;21.582;2022-08-21T14:53:46;4.10;;;2.30;;
51529;SDS011;37613;51.788;21.582;2022-08-21T14:57:50;3.10;;;2.50;;
51529;SDS011;37613;51.788;21.582;2022-08-21T15:01:54;3.00;;;2.60;;
51529;SDS011;37613;51.788;21.582;2022-08-21T15:05:58;5.40;;;2.70;;
51529;SDS011;37613;51.788;21.582;2022-08-21T15:10:00;6.70;;;2.60;;
51529;SDS011;37613;51.788;21.582;2022-08-21T15:14:03;3.80;;;3.10;;
51529;SDS011;37613;51.788;21.582;2022-08-21T15:18:09;4.60;;;2.70;;
51529;SDS011;37613;51.788;21.582;2022-08-21T15:22:11;4.10;;;2.80;;
51529;SDS011;37613;51.788;21.582;2022-08-21T15:26:12;4.70;;;2.80;;
51529;SDS011;37613;51.788;21.582;2022-08-21T15:34:16;3.10;;;2.30;;
51529;SDS011;37613;51.788;21.582;2022-08-21T15:38:18;3.60;;;2.70;;
51529;SDS011;37613;51.788;21.582;2022-08-21T15:42:20;14.00;;;3.20;;
51529;SDS011;37613;51.788;21.582;2022-08-21T15:46:24;3.00;;;2.50;;
51529;SDS011;37613;51.788;21.582;2022-08-21T15:50:25;3.10;;;2.60;;
51529;SDS011;37613;51.788;21.582;2022-08-21T15:54:29;4.60;;;3.00;;
51529;SDS011;37613;51.788;21.582;2022-08-21T15:58:31;2.70;;;2.40;;
51529;SDS011;37613;51.788;21.582;2022-08-21T16:06:35;3.70;;;3.10;;
51529;SDS011;37613;51.788;21.582;2022-08-21T16:10:37;3.60;;;3.00;;
51529;SDS011;37613;51.788;21.582;2022-08-21T16:14:40;2.40;;;2.20;;
51529;SDS011;37613;51.788;21.582;2022-08-21T16:18:42;5.60;;;2.90;;
51529;SDS011;37613;51.788;21.582;2022-08-21T16:22:44;2.80;;;2.60;;
51529;SDS011;37613;51.788;21.582;2022-08-21T16:26:47;3.30;;;3.00;;
51529;SDS011;37613;51.788;21.582;2022-08-21T16:30:50;2.70;;;2.50;;
51529;SDS011;37613;51.788;21.582;2022-08-21T16:34:53;10.50;;;7.10;;
51529;SDS011;37613;51.788;21.582;2022-08-21T16:38:55;4.70;;;3.90;;
51529;SDS011;37613;51.788;21.582;2022-08-21T16:42:58;4.90;;;3.80;;
51529;SDS011;37613;51.788;21.582;2022-08-21T16:47:00;8.90;;;8.10;;
51529;SDS011;37613;51.788;21.582;2022-08-21T16:51:02;11.50;;;9.90;;
51529;SDS011;37613;51.788;21.582;2022-08-21T16:55:05;4.90;;;4.00;;
51529;SDS011;37613;51.788;21.582;2022-08-21T16:59:08;4.10;;;3.50;;
51529;SDS011;37613;51.788;21.582;2022-08-21T17:03:14;5.60;;;2.90;;
51529;SDS011;37613;51.788;21.582;2022-08-21T17:07:18;3.90;;;3.40;;
51529;SDS011;37613;51.788;21.582;2022-08-21T17:11:42;5.50;;;2.80;;
51529;SDS011;37613;51.788;21.582;2022-08-21T17:15:44;5.50;;;3.10;;
51529;SDS011;37613;51.788;21.582;2022-08-21T17:19:46;4.00;;;3.60;;
51529;SDS011;37613;51.788;21.582;2022-08-21T17:23:48;3.10;;;2.90;;
51529;SDS011;37613;51.788;21.582;2022-08-21T17:27:50;5.30;;;4.00;;
51529;SDS011;37613;51.788;21.582;2022-08-21T17:31:53;3.70;;;3.40;;
51529;SDS011;37613;51.788;21.582;2022-08-21T17:35:55;5.60;;;3.00;;
51529;SDS011;37613;51.788;21.582;2022-08-21T17:39:58;7.60;;;4.00;;
51529;SDS011;37613;51.788;21.582;2022-08-21T17:44:03;5.30;;;4.30;;
51529;SDS011;37613;51.788;21.582;2022-08-21T17:48:07;6.60;;;5.50;;
51529;SDS011;37613;51.788;21.582;2022-08-21T17:56:12;14.70;;;7.60;;
51529;SDS011;37613;51.788;21.582;2022-08-21T18:00:17;12.70;;;9.40;;
51529;SDS011;37613;51.788;21.582;2022-08-21T18:04:20;12.30;;;9.00;;
51529;SDS011;37613;51.788;21.582;2022-08-21T18:08:22;11.20;;;7.10;;
51529;SDS011;37613;51.788;21.582;2022-08-21T18:12:23;17.50;;;10.40;;
51529;SDS011;37613;51.788;21.582;2022-08-21T18:16:27;10.40;;;7.70;;
51529;SDS011;37613;51.788;21.582;2022-08-21T18:20:30;10.20;;;7.10;;
51529;SDS011;37613;51.788;21.582;2022-08-21T18:24:35;7.90;;;6.00;;
51529;SDS011;37613;51.788;21.582;2022-08-21T18:28:38;8.10;;;5.00;;
51529;SDS011;37613;51.788;21.582;2022-08-21T18:36:42;11.50;;;5.90;;
51529;SDS011;37613;51.788;21.582;2022-08-21T18:40:46;17.00;;;6.60;;
51529;SDS011;37613;51.788;21.582;2022-08-21T18:44:51;11.60;;;7.70;;
51529;SDS011;37613;51.788;21.582;2022-08-21T18:48:56;9.50;;;7.10;;
51529;SDS011;37613;51.788;21.582;2022-08-21T18:52:58;14.20;;;7.30;;
51529;SDS011;37613;51.788;21.582;2022-08-21T18:57:00;10.80;;;6.90;;
51529;SDS011;37613;51.788;21.582;2022-08-21T19:01:02;7.30;;;5.40;;
51529;SDS011;37613;51.788;21.582;2022-08-21T19:05:04;7.70;;;5.90;;
51529;SDS011;37613;51.788;21.582;2022-08-21T19:09:09;8.70;;;5.40;;
51529;SDS011;37613;51.788;21.582;2022-08-21T19:13:12;7.30;;;5.50;;
51529;SDS011;37613;51.788;21.582;2022-08-21T19:17:17;10.80;;;5.60;;
51529;SDS011;37613;51.788;21.582;2022-08-21T19:21:19;5.70;;;4.80;;
51529;SDS011;37613;51.788;21.582;2022-08-21T19:29:24;4.90;;;4.40;;
51529;SDS011;37613;51.788;21.582;2022-08-21T19:33:28;5.00;;;4.10;;
51529;SDS011;37613;51.788;21.582;2022-08-21T19:37:33;6.90;;;5.00;;
51529;SDS011;37613;51.788;21.582;2022-08-21T19:41:36;9.90;;;4.80;;
51529;SDS011;37613;51.788;21.582;2022-08-21T19:45:42;6.70;;;4.30;;
51529;SDS011;37613;51.788;21.582;2022-08-21T19:49:46;5.20;;;4.50;;
51529;SDS011;37613;51.788;21.582;2022-08-21T19:53:53;7.10;;;4.60;;
51529;SDS011;37613;51.788;21.582;2022-08-21T19:57:56;8.10;;;4.80;;
51529;SDS011;37613;51.788;21.582;2022-08-21T20:01:58;5.20;;;4.70;;
51529;SDS011;37613;51.788;21.582;2022-08-21T20:15:19;5.00;;;4.50;;
51529;SDS011;37613;51.788;21.582;2022-08-21T20:19:22;5.40;;;4.60;;
51529;SDS011;37613;51.788;21.582;2022-08-21T20:23:24;7.90;;;5.50;;
51529;SDS011;37613;51.788;21.582;2022-08-21T20:27:28;5.70;;;4.80;;
51529;SDS011;37613;51.788;21.582;2022-08-21T20:31:30;6.10;;;5.20;;
51529;SDS011;37613;51.788;21.582;2022-08-21T20:35:32;5.40;;;4.90;;
51529;SDS011;37613;51.788;21.582;2022-08-21T20:39:34;9.30;;;5.30;;
51529;SDS011;37613;51.788;21.582;2022-08-21T20:43:36;7.40;;;5.10;;
51529;SDS011;37613;51.788;21.582;2022-08-21T20:47:40;6.20;;;4.90;;
51529;SDS011;37613;51.788;21.582;2022-08-21T20:51:47;5.10;;;4.60;;
51529;SDS011;37613;51.788;21.582;2022-08-21T20:55:52;5.30;;;4.80;;
51529;SDS011;37613;51.788;21.582;2022-08-21T21:00:00;7.00;;;5.00;;
51529;SDS011;37613;51.788;21.582;2022-08-21T21:04:23;5.30;;;4.60;;
51529;SDS011;37613;51.788;21.582;2022-08-21T21:13:06;8.00;;;5.10;;
51529;SDS011;37613;51.788;21.582;2022-08-21T21:22:48;6.50;;;5.40;;
51529;SDS011;37613;51.788;21.582;2022-08-21T21:26:56;5.70;;;5.20;;
51529;SDS011;37613;51.788;21.582;2022-08-21T21:31:02;5.80;;;5.20;;
51529;SDS011;37613;51.788;21.582;2022-08-21T21:35:05;7.20;;;5.00;;
51529;SDS011;37613;51.788;21.582;2022-08-21T21:39:10;6.30;;;5.70;;
51529;SDS011;37613;51.788;21.582;2022-08-21T21:52:04;10.70;;;6.10;;
51529;SDS011;37613;51.788;21.582;2022-08-21T21:56:33;9.40;;;6.10;;
51529;SDS011;37613;51.788;21.582;2022-08-21T22:06:01;8.40;;;6.60;;
51529;SDS011;37613;51.788;21.582;2022-08-21T22:14:34;6.80;;;6.20;;
51529;SDS011;37613;51.788;21.582;2022-08-21T22:18:44;8.00;;;6.40;;
51529;SDS011;37613;51.788;21.582;2022-08-21T22:22:57;7.00;;;6.20;;
51529;SDS011;37613;51.788;21.582;2022-08-21T22:27:03;7.50;;;6.50;;
51529;SDS011;37613;51.788;21.582;2022-08-21T22:31:14;7.30;;;6.40;;
51529;SDS011;37613;51.788;21.582;2022-08-21T22:35:35;7.90;;;6.70;;
51529;SDS011;37613;51.788;21.582;2022-08-21T22:48:02;9.00;;;6.10;;
51529;SDS011;37613;51.788;21.582;2022-08-21T22:52:20;7.20;;;6.50;;
51529;SDS011;37613;51.788;21.582;2022-08-21T22:56:59;6.90;;;6.20;;
51529;SDS011;37613;51.788;21.582;2022-08-21T23:05:23;8.40;;;6.50;;
51529;SDS011;37613;51.788;21.582;2022-08-21T23:09:40;7.00;;;6.30;;
51529;SDS011;37613;51.788;21.582;2022-08-21T23:13:48;9.10;;;6.70;;
51529;SDS011;37613;51.788;21.582;2022-08-21T23:47:43;7.50;;;6.60;;
